createdAt,value
2019-03-31T00:00:51.699Z,0.00
2019-03-31T00:01:51.672Z,0.00
2019-03-31T00:02:51.644Z,0.00
2019-03-31T00:03:51.617Z,0.00
2019-03-31T00:04:51.587Z,0.00
2019-03-31T00:05:51.561Z,0.00
2019-03-31T00:06:51.532Z,0.00
2019-03-31T00:07:51.509Z,0.00
2019-03-31T00:08:51.477Z,0.00
2019-03-31T00:09:51.449Z,0.00
2019-03-31T00:10:51.419Z,0.00
2019-03-31T00:11:51.392Z,0.00
2019-03-31T00:12:51.363Z,0.00
2019-03-31T00:13:51.335Z,0.00
2019-03-31T00:14:51.307Z,0.00
2019-03-31T00:15:51.280Z,0.00
2019-03-31T00:16:52.599Z,0.00
2019-03-31T00:17:51.223Z,0.00
2019-03-31T00:18:51.195Z,0.00
2019-03-31T00:19:51.167Z,0.00
2019-03-31T00:20:51.140Z,0.00
2019-03-31T00:21:51.110Z,0.00
2019-03-31T00:22:51.081Z,0.00
2019-03-31T00:23:51.058Z,0.00
2019-03-31T00:24:53.443Z,0.00
2019-03-31T00:25:50.999Z,0.00
2019-03-31T00:26:50.968Z,0.00
2019-03-31T00:27:50.939Z,0.00
2019-03-31T00:28:50.912Z,0.00
2019-03-31T00:29:50.887Z,0.00
2019-03-31T00:30:50.854Z,0.00
2019-03-31T00:31:50.826Z,0.00
2019-03-31T00:32:50.803Z,0.00
2019-03-31T00:33:50.769Z,0.00
2019-03-31T00:34:50.740Z,0.00
2019-03-31T00:35:50.711Z,0.00
2019-03-31T00:36:50.682Z,0.00
2019-03-31T00:37:50.654Z,0.00
2019-03-31T00:38:50.625Z,0.00
2019-03-31T00:39:50.600Z,0.00
2019-03-31T00:40:50.569Z,0.00
2019-03-31T00:41:50.541Z,0.00
2019-03-31T00:42:50.511Z,0.00
2019-03-31T00:43:50.487Z,0.00
2019-03-31T00:44:50.453Z,0.00
2019-03-31T00:45:50.424Z,0.00
2019-03-31T00:46:50.396Z,0.00
2019-03-31T00:47:50.366Z,0.00
2019-03-31T00:48:50.337Z,0.00
2019-03-31T00:49:50.317Z,0.00
2019-03-31T00:50:50.281Z,0.00
2019-03-31T00:51:50.252Z,0.00
2019-03-31T00:52:50.222Z,0.00
2019-03-31T00:53:50.195Z,0.00
2019-03-31T00:54:50.165Z,0.00
2019-03-31T00:55:50.136Z,0.00
2019-03-31T00:56:50.107Z,0.00
2019-03-31T00:57:50.078Z,0.00
2019-03-31T00:58:50.049Z,0.00
2019-03-31T00:59:50.020Z,0.00
2019-03-31T01:00:49.990Z,0.00
2019-03-31T01:01:49.965Z,0.00
2019-03-31T01:02:49.936Z,0.00
2019-03-31T01:03:49.905Z,0.00
2019-03-31T01:04:49.875Z,0.00
2019-03-31T01:05:49.846Z,0.00
2019-03-31T01:06:49.821Z,0.00
2019-03-31T01:07:49.790Z,0.00
2019-03-31T01:08:49.759Z,0.00
2019-03-31T01:09:49.730Z,0.00
2019-03-31T01:10:49.704Z,0.00
2019-03-31T01:11:49.673Z,0.00
2019-03-31T01:12:49.644Z,0.00
2019-03-31T01:13:49.614Z,0.00
2019-03-31T01:14:49.585Z,0.00
2019-03-31T01:15:49.557Z,0.00
2019-03-31T01:16:49.526Z,0.00
2019-03-31T01:17:49.498Z,0.00
2019-03-31T01:18:49.470Z,0.00
2019-03-31T01:19:49.452Z,0.00
2019-03-31T01:20:49.411Z,0.00
2019-03-31T01:21:49.381Z,0.00
2019-03-31T01:22:49.352Z,0.00
2019-03-31T01:23:49.328Z,0.00
2019-03-31T01:24:49.293Z,0.00
2019-03-31T01:25:49.266Z,0.00
2019-03-31T01:26:49.236Z,0.00
2019-03-31T01:27:49.206Z,0.00
2019-03-31T01:28:49.180Z,0.00
2019-03-31T01:29:49.148Z,0.00
2019-03-31T01:30:49.117Z,0.00
2019-03-31T01:31:50.672Z,0.00
2019-03-31T01:32:49.060Z,0.00
2019-03-31T01:33:49.030Z,0.00
2019-03-31T01:34:49.002Z,0.00
2019-03-31T01:35:48.972Z,0.00
2019-03-31T01:36:48.942Z,0.00
2019-03-31T01:37:48.920Z,0.00
2019-03-31T01:38:48.885Z,0.00
2019-03-31T01:39:48.855Z,0.00
2019-03-31T01:40:48.824Z,0.00
2019-03-31T01:41:48.795Z,0.00
2019-03-31T01:42:48.765Z,0.00
2019-03-31T01:43:48.739Z,0.00
2019-03-31T01:44:48.707Z,0.00
2019-03-31T01:45:48.678Z,0.00
2019-03-31T01:46:48.649Z,0.00
2019-03-31T01:47:48.620Z,0.00
2019-03-31T01:48:48.591Z,0.00
2019-03-31T01:49:48.559Z,0.00
2019-03-31T01:50:48.531Z,0.00
2019-03-31T01:51:48.501Z,0.00
2019-03-31T01:52:48.473Z,0.00
2019-03-31T01:53:48.443Z,0.00
2019-03-31T01:54:48.421Z,0.00
2019-03-31T01:55:48.385Z,0.00
2019-03-31T01:56:48.354Z,0.00
2019-03-31T01:57:48.326Z,0.00
2019-03-31T01:58:48.295Z,0.00
2019-03-31T01:59:48.267Z,0.00
2019-03-31T02:00:48.239Z,0.00
2019-03-31T02:01:48.208Z,0.00
2019-03-31T02:02:48.178Z,0.00
2019-03-31T02:03:48.152Z,0.00
2019-03-31T02:04:48.118Z,0.00
2019-03-31T02:05:48.092Z,0.00
2019-03-31T02:06:48.064Z,0.00
2019-03-31T02:07:48.033Z,0.00
2019-03-31T02:08:48.003Z,0.00
2019-03-31T02:09:47.971Z,0.00
2019-03-31T02:10:47.943Z,0.00
2019-03-31T02:11:47.912Z,0.00
2019-03-31T02:12:47.883Z,0.00
2019-03-31T02:13:47.854Z,0.00
2019-03-31T02:14:47.828Z,0.00
2019-03-31T02:15:47.796Z,0.00
2019-03-31T02:16:47.767Z,0.00
2019-03-31T02:17:47.740Z,0.00
2019-03-31T02:18:47.708Z,0.00
2019-03-31T02:19:47.681Z,0.00
2019-03-31T02:20:47.647Z,0.00
2019-03-31T02:21:47.617Z,0.00
2019-03-31T02:22:47.593Z,0.00
2019-03-31T02:23:47.560Z,0.00
2019-03-31T02:24:47.527Z,0.00
2019-03-31T02:25:47.500Z,0.00
2019-03-31T02:26:47.470Z,0.00
2019-03-31T02:27:47.440Z,0.00
2019-03-31T02:28:47.411Z,0.00
2019-03-31T02:29:47.384Z,0.00
2019-03-31T02:30:47.354Z,0.00
2019-03-31T02:31:47.320Z,0.00
2019-03-31T02:32:47.297Z,0.00
2019-03-31T02:33:47.265Z,0.00
2019-03-31T02:34:47.234Z,0.00
2019-03-31T02:35:47.202Z,0.00
2019-03-31T02:36:47.173Z,0.00
2019-03-31T02:37:47.143Z,0.00
2019-03-31T02:38:47.114Z,0.00
2019-03-31T02:39:47.084Z,0.00
2019-03-31T02:40:47.057Z,0.00
2019-03-31T02:41:47.024Z,0.00
2019-03-31T02:42:46.998Z,0.00
2019-03-31T02:43:46.964Z,0.00
2019-03-31T02:44:46.935Z,0.00
2019-03-31T02:45:46.903Z,0.00
2019-03-31T02:46:46.875Z,0.00
2019-03-31T02:47:46.853Z,0.00
2019-03-31T02:48:46.812Z,0.00
2019-03-31T02:49:46.784Z,0.00
2019-03-31T02:50:46.756Z,0.00
2019-03-31T02:51:46.723Z,0.00
2019-03-31T02:52:46.696Z,0.00
2019-03-31T02:53:46.664Z,0.00
2019-03-31T02:54:46.666Z,0.00
2019-03-31T02:55:46.609Z,0.00
2019-03-31T02:56:46.575Z,0.00
2019-03-31T02:57:46.548Z,0.00
2019-03-31T02:58:46.516Z,0.00
2019-03-31T02:59:46.485Z,0.00
2019-03-31T03:00:46.454Z,0.00
2019-03-31T03:01:46.427Z,0.00
2019-03-31T03:02:46.403Z,0.00
2019-03-31T03:03:46.369Z,0.00
2019-03-31T03:04:46.348Z,0.00
2019-03-31T03:05:46.304Z,0.00
2019-03-31T03:06:46.276Z,0.00
2019-03-31T03:07:46.274Z,0.00
2019-03-31T03:08:46.219Z,0.00
2019-03-31T03:09:46.185Z,0.00
2019-03-31T03:10:46.158Z,0.00
2019-03-31T03:11:46.128Z,0.00
2019-03-31T03:12:46.096Z,0.00
2019-03-31T03:13:46.067Z,0.00
2019-03-31T03:14:46.037Z,0.00
2019-03-31T03:15:46.008Z,0.00
2019-03-31T03:16:45.979Z,0.00
2019-03-31T03:17:45.952Z,0.00
2019-03-31T03:18:45.921Z,0.00
2019-03-31T03:19:45.896Z,0.00
2019-03-31T03:20:45.862Z,0.00
2019-03-31T03:21:45.834Z,0.00
2019-03-31T03:22:45.797Z,0.00
2019-03-31T03:23:45.769Z,0.00
2019-03-31T03:24:45.741Z,0.00
2019-03-31T03:25:55.682Z,0.00
2019-03-31T03:26:45.679Z,0.00
2019-03-31T03:27:45.650Z,0.00
2019-03-31T03:28:45.633Z,0.00
2019-03-31T03:29:45.595Z,0.00
2019-03-31T03:30:45.922Z,0.00
2019-03-31T03:31:45.605Z,0.00
2019-03-31T03:33:12.520Z,0.00
2019-03-31T03:33:45.476Z,0.00
2019-03-31T03:34:45.441Z,0.00
2019-03-31T03:35:45.429Z,0.00
2019-03-31T03:36:45.384Z,0.00
2019-03-31T03:37:45.353Z,0.00
2019-03-31T03:38:45.323Z,0.00
2019-03-31T03:39:45.302Z,0.00
2019-03-31T03:40:45.263Z,0.00
2019-03-31T03:41:45.233Z,0.00
2019-03-31T03:42:45.204Z,0.00
2019-03-31T03:43:55.146Z,0.00
2019-03-31T03:44:45.350Z,0.00
2019-03-31T03:45:45.114Z,0.00
2019-03-31T03:46:45.085Z,0.00
2019-03-31T03:47:45.056Z,0.00
2019-03-31T03:48:45.026Z,0.00
2019-03-31T03:49:44.995Z,0.00
2019-03-31T03:50:44.966Z,0.00
2019-03-31T03:51:44.935Z,0.00
2019-03-31T03:52:44.906Z,0.00
2019-03-31T03:53:44.877Z,0.00
2019-03-31T03:54:44.852Z,0.00
2019-03-31T03:55:44.818Z,0.00
2019-03-31T03:56:44.789Z,0.00
2019-03-31T03:57:44.760Z,0.00
2019-03-31T03:58:44.731Z,0.00
2019-03-31T03:59:44.699Z,0.00
2019-03-31T04:00:44.668Z,0.00
2019-03-31T04:01:44.638Z,0.00
2019-03-31T04:02:44.610Z,0.00
2019-03-31T04:03:44.581Z,0.00
2019-03-31T04:04:44.548Z,0.00
2019-03-31T04:05:44.533Z,0.00
2019-03-31T04:06:44.492Z,0.00
2019-03-31T04:07:44.463Z,0.00
2019-03-31T04:08:44.431Z,0.00
2019-03-31T04:09:44.400Z,0.00
2019-03-31T04:10:44.414Z,0.00
2019-03-31T04:11:44.343Z,0.00
2019-03-31T04:12:44.315Z,0.00
2019-03-31T04:13:44.292Z,0.00
2019-03-31T04:14:44.253Z,0.00
2019-03-31T04:15:44.231Z,4.00
2019-03-31T04:16:44.196Z,0.00
2019-03-31T04:17:44.173Z,4.00
2019-03-31T04:18:44.134Z,4.00
2019-03-31T04:19:44.107Z,4.00
2019-03-31T04:20:44.076Z,8.00
2019-03-31T04:21:44.050Z,8.00
2019-03-31T04:22:44.026Z,8.00
2019-03-31T04:23:43.990Z,8.00
2019-03-31T04:24:43.960Z,12.00
2019-03-31T04:25:43.929Z,12.00
2019-03-31T04:26:43.914Z,12.00
2019-03-31T04:27:43.869Z,16.00
2019-03-31T04:28:43.858Z,24.00
2019-03-31T04:29:43.813Z,28.00
2019-03-31T04:30:43.786Z,32.00
2019-03-31T04:31:43.751Z,36.00
2019-03-31T04:32:43.730Z,40.00
2019-03-31T04:33:51.257Z,48.00
2019-03-31T04:34:43.689Z,60.00
2019-03-31T04:35:43.633Z,68.00
2019-03-31T04:36:43.604Z,80.00
2019-03-31T04:37:43.571Z,96.00
2019-03-31T04:38:43.545Z,104.00
2019-03-31T04:39:43.513Z,120.00
2019-03-31T04:40:43.507Z,144.00
2019-03-31T04:41:43.453Z,160.00
2019-03-31T04:42:43.430Z,184.00
2019-03-31T04:43:43.395Z,208.00
2019-03-31T04:44:43.366Z,236.00
2019-03-31T04:45:43.336Z,264.00
2019-03-31T04:46:43.305Z,292.00
2019-03-31T04:47:43.273Z,328.00
2019-03-31T04:48:43.245Z,360.00
2019-03-31T04:49:43.214Z,400.00
2019-03-31T04:50:43.183Z,440.00
2019-03-31T04:51:43.154Z,484.00
2019-03-31T04:52:43.123Z,532.00
2019-03-31T04:53:43.097Z,580.00
2019-03-31T04:54:43.065Z,628.00
2019-03-31T04:55:43.034Z,680.00
2019-03-31T04:56:43.002Z,740.00
2019-03-31T04:57:42.986Z,796.00
2019-03-31T04:58:42.944Z,856.00
2019-03-31T04:59:42.912Z,916.00
2019-03-31T05:00:42.882Z,984.00
2019-03-31T05:01:42.853Z,1052.00
2019-03-31T05:02:42.823Z,1120.00
2019-03-31T05:03:42.793Z,1192.00
2019-03-31T05:04:42.763Z,1268.00
2019-03-31T05:05:42.734Z,1344.00
2019-03-31T05:06:42.702Z,1420.00
2019-03-31T05:07:42.671Z,1500.00
2019-03-31T05:08:42.639Z,1588.00
2019-03-31T05:09:42.609Z,1672.00
2019-03-31T05:10:42.582Z,1752.00
2019-03-31T05:11:42.551Z,1840.00
2019-03-31T05:12:42.519Z,1932.00
2019-03-31T05:13:42.490Z,2024.00
2019-03-31T05:14:42.460Z,2112.00
2019-03-31T05:15:42.430Z,2200.00
2019-03-31T05:16:42.399Z,2300.00
2019-03-31T05:17:42.371Z,2404.00
2019-03-31T05:18:42.348Z,2500.00
2019-03-31T05:19:42.308Z,2608.00
2019-03-31T05:20:42.277Z,2708.00
2019-03-31T05:21:42.248Z,2808.00
2019-03-31T05:22:42.219Z,2912.00
2019-03-31T05:23:42.190Z,3024.00
2019-03-31T05:24:42.157Z,3128.00
2019-03-31T05:25:42.125Z,3220.00
2019-03-31T05:26:42.097Z,3336.00
2019-03-31T05:27:42.068Z,3444.00
2019-03-31T05:28:44.188Z,3544.00
2019-03-31T05:29:42.005Z,3672.00
2019-03-31T05:30:41.975Z,3792.00
2019-03-31T05:31:41.945Z,3928.00
2019-03-31T05:32:41.915Z,4056.00
2019-03-31T05:33:41.887Z,4184.00
2019-03-31T05:34:41.856Z,4376.00
2019-03-31T05:35:41.824Z,4664.00
2019-03-31T05:36:41.793Z,5092.00
2019-03-31T05:37:50.818Z,5568.00
2019-03-31T05:38:41.734Z,6052.00
2019-03-31T05:39:41.705Z,6360.00
2019-03-31T05:40:41.672Z,6304.00
2019-03-31T05:41:41.644Z,5748.00
2019-03-31T05:42:41.613Z,5648.00
2019-03-31T05:43:41.585Z,5856.00
2019-03-31T05:44:41.555Z,5524.00
2019-03-31T05:45:41.526Z,5088.00
2019-03-31T05:46:41.495Z,4992.00
2019-03-31T05:47:41.466Z,5120.00
2019-03-31T05:48:41.436Z,5212.00
2019-03-31T05:49:41.408Z,5204.00
2019-03-31T05:50:41.381Z,5344.00
2019-03-31T05:51:41.347Z,5888.00
2019-03-31T05:52:41.320Z,6156.00
2019-03-31T05:53:41.289Z,6000.00
2019-03-31T05:54:41.261Z,5504.00
2019-03-31T05:55:41.231Z,5004.00
2019-03-31T05:56:41.202Z,4592.00
2019-03-31T05:57:41.174Z,4244.00
2019-03-31T05:58:41.144Z,3988.00
2019-03-31T05:59:41.115Z,4016.00
2019-03-31T06:00:41.088Z,4204.00
2019-03-31T06:01:41.057Z,4364.00
2019-03-31T06:02:41.030Z,4432.00
2019-03-31T06:03:41.001Z,4324.00
2019-03-31T06:04:40.974Z,4052.00
2019-03-31T06:05:40.943Z,3688.00
2019-03-31T06:06:40.913Z,3456.00
2019-03-31T06:07:40.885Z,3444.00
2019-03-31T06:08:40.855Z,3468.00
2019-03-31T06:09:40.827Z,3716.00
2019-03-31T06:10:40.798Z,4192.00
2019-03-31T06:11:40.769Z,4224.00
2019-03-31T06:12:40.739Z,4388.00
2019-03-31T06:13:40.715Z,4280.00
2019-03-31T06:14:40.683Z,4272.00
2019-03-31T06:15:40.654Z,4268.00
2019-03-31T06:16:40.625Z,4164.00
2019-03-31T06:17:40.596Z,4412.00
2019-03-31T06:18:40.572Z,4452.00
2019-03-31T06:19:40.539Z,3916.00
2019-03-31T06:20:40.509Z,4536.00
2019-03-31T06:21:40.481Z,5068.00
2019-03-31T06:22:40.454Z,5220.00
2019-03-31T06:23:40.427Z,5356.00
2019-03-31T06:24:40.394Z,5492.00
2019-03-31T06:25:40.370Z,5652.00
2019-03-31T06:26:40.338Z,5888.00
2019-03-31T06:27:40.311Z,6184.00
2019-03-31T06:28:40.279Z,6460.00
2019-03-31T06:29:40.250Z,6736.00
2019-03-31T06:30:40.223Z,6976.00
2019-03-31T06:31:40.193Z,7196.00
2019-03-31T06:32:40.164Z,7260.00
2019-03-31T06:33:40.139Z,6836.00
2019-03-31T06:34:47.208Z,6692.00
2019-03-31T06:35:40.079Z,7120.00
2019-03-31T06:36:40.051Z,7124.00
2019-03-31T06:37:40.022Z,7160.00
2019-03-31T06:38:39.993Z,7300.00
2019-03-31T06:39:39.964Z,7732.00
2019-03-31T06:40:39.937Z,7664.00
2019-03-31T06:41:39.907Z,7424.00
2019-03-31T06:42:39.879Z,7768.00
2019-03-31T06:43:39.850Z,8168.00
2019-03-31T06:44:39.821Z,8436.00
2019-03-31T06:45:39.793Z,8700.00
2019-03-31T06:46:39.763Z,8912.00
2019-03-31T06:47:39.736Z,8432.00
2019-03-31T06:48:39.707Z,8764.00
2019-03-31T06:49:39.678Z,8976.00
2019-03-31T06:50:39.652Z,8960.00
2019-03-31T06:51:39.624Z,8668.00
2019-03-31T06:52:39.595Z,8216.00
2019-03-31T06:53:39.567Z,8384.00
2019-03-31T06:54:39.539Z,9280.00
2019-03-31T06:55:39.512Z,9932.00
2019-03-31T06:56:39.481Z,10116.00
2019-03-31T06:57:39.454Z,10240.00
2019-03-31T06:58:39.428Z,10316.00
2019-03-31T06:59:39.399Z,9692.00
2019-03-31T07:00:39.377Z,9308.00
2019-03-31T07:01:39.343Z,10540.00
2019-03-31T07:02:39.316Z,10580.00
2019-03-31T07:03:39.309Z,10272.00
2019-03-31T07:04:39.258Z,10396.00
2019-03-31T07:05:39.234Z,10924.00
2019-03-31T07:06:39.204Z,10884.00
2019-03-31T07:07:39.177Z,10864.00
2019-03-31T07:08:39.149Z,10556.00
2019-03-31T07:09:39.121Z,10320.00
2019-03-31T07:10:39.096Z,10896.00
2019-03-31T07:11:39.065Z,11820.00
2019-03-31T07:12:39.037Z,12488.00
2019-03-31T07:13:39.010Z,13028.00
2019-03-31T07:14:38.987Z,13072.00
2019-03-31T07:15:38.954Z,13348.00
2019-03-31T07:16:38.924Z,13040.00
2019-03-31T07:17:38.902Z,12608.00
2019-03-31T07:18:38.872Z,12372.00
2019-03-31T07:19:38.844Z,11704.00
2019-03-31T07:20:38.824Z,11304.00
2019-03-31T07:21:38.788Z,11156.00
2019-03-31T07:22:38.763Z,11236.00
2019-03-31T07:23:38.734Z,11696.00
2019-03-31T07:24:38.708Z,12604.00
2019-03-31T07:25:38.681Z,12960.00
2019-03-31T07:26:38.650Z,12276.00
2019-03-31T07:27:38.627Z,11068.00
2019-03-31T07:28:38.597Z,12128.00
2019-03-31T07:29:38.568Z,14176.00
2019-03-31T07:30:38.542Z,15344.00
2019-03-31T07:31:38.515Z,16516.00
2019-03-31T07:32:38.487Z,16952.00
2019-03-31T07:33:38.460Z,16192.00
2019-03-31T07:34:38.433Z,17920.00
2019-03-31T07:35:39.117Z,18976.00
2019-03-31T07:36:38.381Z,19200.00
2019-03-31T07:37:47.226Z,19392.00
2019-03-31T07:38:39.589Z,19648.00
2019-03-31T07:39:38.296Z,19456.00
2019-03-31T07:40:38.276Z,19360.00
2019-03-31T07:41:38.242Z,19648.00
2019-03-31T07:42:38.217Z,18752.00
2019-03-31T07:43:38.191Z,19520.00
2019-03-31T07:44:38.166Z,18912.00
2019-03-31T07:45:38.140Z,18240.00
2019-03-31T07:46:38.109Z,17824.00
2019-03-31T07:47:38.083Z,15968.00
2019-03-31T07:48:38.053Z,15616.00
2019-03-31T07:49:38.025Z,15052.00
2019-03-31T07:50:38.001Z,14764.00
2019-03-31T07:51:37.975Z,14944.00
2019-03-31T07:52:37.951Z,15088.00
2019-03-31T07:53:37.921Z,14328.00
2019-03-31T07:54:37.892Z,14780.00
2019-03-31T07:55:37.867Z,15388.00
2019-03-31T07:56:37.840Z,16292.00
2019-03-31T07:57:37.830Z,17080.00
2019-03-31T07:58:37.845Z,17192.00
2019-03-31T07:59:37.796Z,17120.00
2019-03-31T08:00:37.731Z,17760.00
2019-03-31T08:01:37.770Z,17632.00
2019-03-31T08:02:37.678Z,16848.00
2019-03-31T08:03:37.651Z,17236.00
2019-03-31T08:04:37.624Z,17632.00
2019-03-31T08:05:37.828Z,17300.00
2019-03-31T08:06:37.569Z,16912.00
2019-03-31T08:07:37.544Z,16288.00
2019-03-31T08:08:37.516Z,15508.00
2019-03-31T08:09:37.490Z,22176.00
2019-03-31T08:10:37.465Z,31936.00
2019-03-31T08:11:37.435Z,50784.00
2019-03-31T08:12:37.409Z,48864.00
2019-03-31T08:13:37.382Z,50144.00
2019-03-31T08:14:37.357Z,46400.00
2019-03-31T08:15:37.331Z,55616.00
2019-03-31T08:16:37.303Z,56640.00
2019-03-31T08:17:37.278Z,48384.00
2019-03-31T08:18:37.254Z,56160.00
2019-03-31T08:19:37.228Z,37760.00
2019-03-31T08:20:37.207Z,30560.00
2019-03-31T08:21:37.185Z,25280.00
2019-03-31T08:22:37.155Z,25312.00
2019-03-31T08:23:37.131Z,17696.00
2019-03-31T08:24:37.106Z,14756.00
2019-03-31T08:25:37.082Z,15080.00
2019-03-31T08:26:37.057Z,16436.00
2019-03-31T08:27:37.035Z,17792.00
2019-03-31T08:28:37.008Z,17888.00
2019-03-31T08:29:36.982Z,19232.00
2019-03-31T08:30:36.959Z,58240.00
2019-03-31T08:31:36.933Z,54336.00
2019-03-31T08:32:36.909Z,63520.00
2019-03-31T08:33:36.882Z,21888.00
2019-03-31T08:34:36.859Z,57568.00
2019-03-31T08:35:47.323Z,55680.00
2019-03-31T08:36:36.818Z,58816.00
2019-03-31T08:37:36.786Z,64352.00
2019-03-31T08:38:36.762Z,66112.00
2019-03-31T08:39:36.738Z,61728.00
2019-03-31T08:40:36.714Z,56576.00
2019-03-31T08:41:36.695Z,54496.00
2019-03-31T08:42:36.668Z,54176.00
2019-03-31T08:43:36.686Z,22496.00
2019-03-31T08:44:36.623Z,15028.00
2019-03-31T08:45:36.600Z,17448.00
2019-03-31T08:46:36.579Z,17052.00
2019-03-31T08:47:36.555Z,29312.00
2019-03-31T08:48:36.531Z,53696.00
2019-03-31T08:49:36.511Z,54272.00
2019-03-31T08:50:36.486Z,53664.00
2019-03-31T08:51:36.463Z,53376.00
2019-03-31T08:52:36.442Z,54880.00
2019-03-31T08:53:36.423Z,60288.00
2019-03-31T08:54:36.396Z,64992.00
2019-03-31T08:55:36.372Z,64416.00
2019-03-31T08:56:36.353Z,60704.00
2019-03-31T08:57:36.332Z,53472.00
2019-03-31T08:58:36.309Z,29568.00
2019-03-31T08:59:36.285Z,22880.00
2019-03-31T09:00:36.262Z,55200.00
2019-03-31T09:01:36.241Z,67968.00
2019-03-31T09:02:36.269Z,63360.00
2019-03-31T09:03:36.198Z,16240.00
2019-03-31T09:04:36.175Z,20096.00
2019-03-31T09:05:36.153Z,17704.00
2019-03-31T09:06:36.134Z,24000.00
2019-03-31T09:07:36.110Z,16720.00
2019-03-31T09:08:36.086Z,39456.00
2019-03-31T09:09:36.063Z,73696.00
2019-03-31T09:10:36.041Z,77344.00
2019-03-31T09:11:36.019Z,77440.00
2019-03-31T09:12:35.994Z,60448.00
2019-03-31T09:13:35.972Z,74592.00
2019-03-31T09:14:35.949Z,66816.00
2019-03-31T09:15:35.926Z,63840.00
2019-03-31T09:16:35.903Z,60352.00
2019-03-31T09:17:35.881Z,66624.00
2019-03-31T09:18:35.858Z,68224.00
2019-03-31T09:19:35.836Z,75808.00
2019-03-31T09:20:35.812Z,75232.00
2019-03-31T09:21:35.791Z,74272.00
2019-03-31T09:22:35.772Z,71520.00
2019-03-31T09:23:35.748Z,71040.00
2019-03-31T09:24:35.725Z,72000.00
2019-03-31T09:25:35.702Z,63136.00
2019-03-31T09:26:35.685Z,72000.00
2019-03-31T09:27:35.660Z,69920.00
2019-03-31T09:28:35.638Z,53824.00
2019-03-31T09:29:35.619Z,55584.00
2019-03-31T09:30:35.596Z,66432.00
2019-03-31T09:31:35.582Z,75168.00
2019-03-31T09:32:35.555Z,75584.00
2019-03-31T09:33:35.533Z,74336.00
2019-03-31T09:34:35.509Z,76864.00
2019-03-31T09:35:35.488Z,77152.00
2019-03-31T09:36:35.467Z,75200.00
2019-03-31T09:37:35.445Z,76384.00
2019-03-31T09:38:35.430Z,70560.00
2019-03-31T09:39:35.401Z,71456.00
2019-03-31T09:40:35.380Z,68352.00
2019-03-31T09:41:35.359Z,67808.00
2019-03-31T09:42:35.337Z,66176.00
2019-03-31T09:43:35.315Z,63776.00
2019-03-31T09:44:35.294Z,60384.00
2019-03-31T09:45:35.271Z,66720.00
2019-03-31T09:46:35.251Z,66688.00
2019-03-31T09:47:35.232Z,69440.00
2019-03-31T09:48:35.207Z,22912.00
2019-03-31T09:49:35.188Z,24384.00
2019-03-31T09:50:35.167Z,76288.00
2019-03-31T09:51:35.144Z,75968.00
2019-03-31T09:52:35.122Z,74144.00
2019-03-31T09:53:35.102Z,73024.00
2019-03-31T09:54:35.080Z,75296.00
2019-03-31T09:55:35.057Z,66240.00
2019-03-31T09:56:35.035Z,72800.00
2019-03-31T09:57:35.014Z,73568.00
2019-03-31T09:58:34.993Z,78560.00
2019-03-31T09:59:34.972Z,84160.00
2019-03-31T10:00:34.950Z,45920.00
2019-03-31T10:01:34.928Z,56608.00
2019-03-31T10:02:34.908Z,45824.00
2019-03-31T10:03:34.886Z,34752.00
2019-03-31T10:04:34.864Z,86688.00
2019-03-31T10:05:34.842Z,76704.00
2019-03-31T10:06:34.821Z,26880.00
2019-03-31T10:07:34.800Z,80064.00
2019-03-31T10:08:34.780Z,83264.00
2019-03-31T10:09:34.757Z,45664.00
2019-03-31T10:10:34.735Z,61120.00
2019-03-31T10:11:34.718Z,98208.00
2019-03-31T10:12:34.691Z,95552.00
2019-03-31T10:13:35.069Z,91168.00
2019-03-31T10:14:34.647Z,92288.00
2019-03-31T10:15:34.626Z,90016.00
2019-03-31T10:16:34.605Z,89632.00
2019-03-31T10:17:34.582Z,90816.00
2019-03-31T10:18:34.560Z,95616.00
2019-03-31T10:19:34.540Z,103808.00
2019-03-31T10:20:34.526Z,109408.00
2019-03-31T10:21:34.496Z,106240.00
2019-03-31T10:22:34.474Z,55968.00
2019-03-31T10:23:34.451Z,35776.00
2019-03-31T10:24:34.431Z,31584.00
2019-03-31T10:25:34.410Z,31168.00
2019-03-31T10:26:34.390Z,98656.00
2019-03-31T10:27:34.368Z,93920.00
2019-03-31T10:28:34.345Z,92192.00
2019-03-31T10:29:34.324Z,90720.00
2019-03-31T10:30:34.302Z,89568.00
2019-03-31T10:31:34.283Z,87776.00
2019-03-31T10:32:34.260Z,88160.00
2019-03-31T10:33:34.238Z,86464.00
2019-03-31T10:34:34.217Z,90912.00
2019-03-31T10:35:34.195Z,94592.00
2019-03-31T10:36:44.532Z,37280.00
2019-03-31T10:37:34.155Z,36000.00
2019-03-31T10:38:34.133Z,36288.00
2019-03-31T10:39:34.114Z,80832.00
2019-03-31T10:40:34.091Z,35552.00
2019-03-31T10:41:34.071Z,32032.00
2019-03-31T10:42:34.050Z,71008.00
2019-03-31T10:43:34.027Z,61312.00
2019-03-31T10:44:34.007Z,79008.00
2019-03-31T10:45:33.992Z,29632.00
2019-03-31T10:46:33.965Z,28128.00
2019-03-31T10:47:33.942Z,72256.00
2019-03-31T10:48:33.920Z,66656.00
2019-03-31T10:49:33.897Z,48768.00
2019-03-31T10:50:33.876Z,45120.00
2019-03-31T10:51:33.853Z,55328.00
2019-03-31T10:52:33.831Z,60992.00
2019-03-31T10:53:33.808Z,59520.00
2019-03-31T10:54:33.787Z,62016.00
2019-03-31T10:55:33.764Z,70624.00
2019-03-31T10:56:33.743Z,75456.00
2019-03-31T10:57:33.719Z,80224.00
2019-03-31T10:58:33.698Z,81760.00
2019-03-31T10:59:33.676Z,82432.00
2019-03-31T11:00:33.668Z,76960.00
2019-03-31T11:01:33.632Z,76800.00
2019-03-31T11:02:33.609Z,72992.00
2019-03-31T11:03:33.593Z,67520.00
2019-03-31T11:04:33.564Z,62240.00
2019-03-31T11:05:33.542Z,50560.00
2019-03-31T11:06:33.521Z,64224.00
2019-03-31T11:07:33.499Z,71328.00
2019-03-31T11:08:33.476Z,75936.00
2019-03-31T11:09:34.494Z,78240.00
2019-03-31T11:10:33.432Z,71680.00
2019-03-31T11:11:33.410Z,67488.00
2019-03-31T11:12:33.387Z,61440.00
2019-03-31T11:13:33.369Z,64224.00
2019-03-31T11:14:33.342Z,66624.00
2019-03-31T11:15:33.320Z,71552.00
2019-03-31T11:16:33.296Z,56320.00
2019-03-31T11:17:33.275Z,67520.00
2019-03-31T11:18:33.252Z,63712.00
2019-03-31T11:19:33.231Z,71520.00
2019-03-31T11:20:33.207Z,71296.00
2019-03-31T11:21:33.192Z,69856.00
2019-03-31T11:22:33.165Z,68768.00
2019-03-31T11:23:33.142Z,73408.00
2019-03-31T11:24:33.126Z,48160.00
2019-03-31T11:25:33.095Z,78208.00
2019-03-31T11:26:33.074Z,24032.00
2019-03-31T11:27:33.052Z,58592.00
2019-03-31T11:28:33.119Z,67456.00
2019-03-31T11:29:33.007Z,65184.00
2019-03-31T11:30:32.990Z,66592.00
2019-03-31T11:31:32.963Z,66816.00
2019-03-31T11:32:32.942Z,62848.00
2019-03-31T11:33:32.917Z,60704.00
2019-03-31T11:34:32.896Z,67232.00
2019-03-31T11:35:32.873Z,82208.00
2019-03-31T11:36:32.849Z,88544.00
2019-03-31T11:37:32.826Z,91264.00
2019-03-31T11:38:32.804Z,91328.00
2019-03-31T11:39:32.784Z,87264.00
2019-03-31T11:40:32.760Z,75872.00
2019-03-31T11:41:32.737Z,70208.00
2019-03-31T11:42:32.716Z,67200.00
2019-03-31T11:43:32.693Z,68512.00
2019-03-31T11:44:32.673Z,64128.00
2019-03-31T11:45:32.651Z,59424.00
2019-03-31T11:46:32.628Z,47296.00
2019-03-31T11:47:32.606Z,48864.00
2019-03-31T11:48:32.581Z,73312.00
2019-03-31T11:49:32.560Z,73696.00
2019-03-31T11:50:32.538Z,86688.00
2019-03-31T11:51:32.514Z,82272.00
2019-03-31T11:52:32.492Z,79648.00
2019-03-31T11:53:32.471Z,81728.00
2019-03-31T11:54:32.447Z,81408.00
2019-03-31T11:55:32.429Z,81056.00
2019-03-31T11:56:32.403Z,80448.00
2019-03-31T11:57:32.384Z,81856.00
2019-03-31T11:58:32.579Z,80928.00
2019-03-31T11:59:32.337Z,82592.00
2019-03-31T12:00:32.316Z,80160.00
2019-03-31T12:01:32.293Z,75232.00
2019-03-31T12:02:32.273Z,71104.00
2019-03-31T12:03:32.251Z,72512.00
2019-03-31T12:04:32.224Z,69952.00
2019-03-31T12:05:32.202Z,74560.00
2019-03-31T12:06:32.181Z,69856.00
2019-03-31T12:07:45.688Z,65152.00
2019-03-31T12:08:32.137Z,66624.00
2019-03-31T12:09:32.114Z,72224.00
2019-03-31T12:10:32.101Z,66912.00
2019-03-31T12:11:32.070Z,68000.00
2019-03-31T12:12:32.048Z,70528.00
2019-03-31T12:13:32.034Z,67936.00
2019-03-31T12:14:32.004Z,58624.00
2019-03-31T12:15:31.982Z,54848.00
2019-03-31T12:16:31.960Z,63648.00
2019-03-31T12:17:31.938Z,66560.00
2019-03-31T12:18:31.916Z,71136.00
2019-03-31T12:19:31.895Z,73696.00
2019-03-31T12:20:31.874Z,74240.00
2019-03-31T12:21:31.848Z,76096.00